Cleveland, Ohio
Traffic Map
Current Weather Conditions
Cleveland, Ohio
Overcast Light Rain
Overcast
19°
Feels Like: 19°
Wind Chill: 19° Ceiling: 1600
Heat Index: 19° Visibility: 4mi
Dew Point: 17° Wind: 9mph
Humidity: 90% Direction: 340° (NNW)
Pressure: 30.03in Gusts: 0mph
Raw Report DataKBKL 231753Z 34008KT 4SM -RA BR SCT009 OVC016 19/17 A3003 RMK AO2 RAB41 SLP164 P0000 60001 T01890172 10244 20189 53027 $
Traffic Incident Summary
Active as of:
Severity:
Category:
InformationThere was an issue retrieving the traffic information for this location. Please try a different location or try again shortly.
Advertisements
Track Severe Weather on mobile